Wetterdaten: Woche 04.10.10 - 10.10.10 (KW40)
Datum Zeit Temp. A. Feuchte A. Luftdruck Regen Wind Richtung Taupunkt Windchill Windben
04.10.2010 00:00 11,2 C 72 % 1003,8 hPa 0,0 l/m 0,0 km/h N-NO 6,3 C 11,2 C 0,0 km/h
04.10.2010 01:00 10,4 C 73 % 1004,2 hPa 0,0 l/m 0,0 km/h N-NO 5,8 C 10,4 C 0,0 km/h
04.10.2010 02:00 10,9 C 74 % 1003,5 hPa 0,0 l/m 0,0 km/h N-NO 6,5 C 10,9 C 0,0 km/h
04.10.2010 03:00 10,3 C 74 % 1002,8 hPa 0,0 l/m 0,0 km/h N 5,9 C 10,3 C 0,0 km/h
04.10.2010 04:00 9,7 C 75 % 1002,0 hPa 0,0 l/m 0,0 km/h N 5,5 C 9,7 C 0,0 km/h
04.10.2010 05:00 8,6 C 76 % 1002,0 hPa 0,0 l/m 0,0 km/h N-NO 4,6 C 8,6 C 0,0 km/h
04.10.2010 06:00 8,3 C 77 % 1002,3 hPa 0,0 l/m 0,0 km/h O-NO 4,5 C 8,3 C 0,0 km/h
04.10.2010 07:00 7,9 C 77 % 1001,6 hPa 0,0 l/m 0,0 km/h N 4,1 C 7,9 C 0,0 km/h
04.10.2010 08:00 9,2 C 77 % 1001,6 hPa 0,0 l/m 0,0 km/h W 5,4 C 9,2 C 0,0 km/h
04.10.2010 09:00 13,2 C 76 % 1002,0 hPa 0,0 l/m 0,0 km/h W-SW 9,1 C 13,2 C 0,0 km/h
04.10.2010 10:00 16,6 C 77 % 1001,9 hPa 0,0 l/m 0,0 km/h W-SW 12,5 C 16,6 C 0,0 km/h
04.10.2010 11:00 19,6 C 71 % 1001,7 hPa 0,0 l/m 0,0 km/h SO 14,2 C 19,6 C 0,0 km/h
04.10.2010 12:00 20,0 C 69 % 1000,3 hPa 0,0 l/m 0,0 km/h W-NW 14,1 C 20,0 C 0,0 km/h
04.10.2010 13:00 22,6 C 63 % 999,5 hPa 0,0 l/m 10,4 km/h NW 15,2 C 21,4 C 5,8 km/h
04.10.2010 14:00 21,7 C 65 % 998,5 hPa 0,0 l/m 1,9 km/h W 14,8 C 21,7 C 1,1 km/h
04.10.2010 15:00 20,6 C 68 % 998,0 hPa 0,0 l/m 9,1 km/h S-SW 14,5 C 19,6 C 5,0 km/h
04.10.2010 16:00 21,1 C 68 % 997,5 hPa 0,0 l/m 0,0 km/h W 15,0 C 21,1 C 0,0 km/h
04.10.2010 17:00 21,8 C 65 % 997,5 hPa 0,0 l/m 0,0 km/h SW 14,9 C 21,8 C 0,0 km/h
04.10.2010 18:00 18,2 C 78 % 998,3 hPa 0,0 l/m 0,0 km/h W-SW 14,3 C 18,2 C 0,0 km/h
04.10.2010 19:00 15,6 C 80 % 999,5 hPa 0,0 l/m 9,1 km/h S-SW 12,2 C 14,2 C 5,0 km/h
04.10.2010 20:00 16,1 C 80 % 1001,2 hPa 0,0 l/m 1,3 km/h NO 12,6 C 16,1 C 0,7 km/h
04.10.2010 21:00 15,6 C 81 % 1001,8 hPa 0,0 l/m 0,0 km/h NO 12,3 C 15,6 C 0,0 km/h
04.10.2010 22:00 14,7 C 80 % 1002,2 hPa 0,0 l/m 0,0 km/h NO 11,3 C 14,7 C 0,0 km/h
04.10.2010 23:00 14,8 C 80 % 1002,1 hPa 0,0 l/m 0,0 km/h SO 11,4 C 14,8 C 0,0 km/h
05.10.2010 00:00 14,7 C 80 % 1002,0 hPa 0,0 l/m 0,0 km/h SO 11,3 C 14,7 C 0,0 km/h
05.10.2010 01:00 14,6 C 79 % 1002,9 hPa 0,0 l/m 0,0 km/h O-NO 11,0 C 14,6 C 0,0 km/h
05.10.2010 02:00 14,4 C 79 % 1003,8 hPa 0,4 l/m 0,0 km/h O-SO 10,8 C 14,4 C 0,0 km/h
05.10.2010 03:00 14,3 C 79 % 1004,2 hPa 0,4 l/m 0,0 km/h N 10,7 C 14,3 C 0,0 km/h
05.10.2010 04:00 14,4 C 79 % 1004,6 hPa 0,0 l/m 0,0 km/h SO 10,8 C 14,4 C 0,0 km/h
05.10.2010 05:00 14,4 C 80 % 1004,7 hPa 0,0 l/m 1,9 km/h SO 11,0 C 14,4 C 1,1 km/h
05.10.2010 06:00 14,3 C 80 % 1005,0 hPa 0,0 l/m 0,0 km/h NO 10,9 C 14,3 C 0,0 km/h
05.10.2010 07:00 13,8 C 81 % 1005,0 hPa 0,0 l/m 0,0 km/h NO 10,6 C 13,8 C 0,0 km/h
05.10.2010 08:00 14,1 C 81 % 1005,8 hPa 0,0 l/m 0,0 km/h NO 10,9 C 14,1 C 0,0 km/h
05.10.2010 09:00 15,6 C 82 % 1006,7 hPa 0,0 l/m 0,0 km/h W-SW 12,5 C 15,6 C 0,0 km/h
05.10.2010 10:00 16,4 C 84 % 1007,3 hPa 0,0 l/m 9,7 km/h S 13,7 C 14,8 C 5,4 km/h
05.10.2010 11:00 17,9 C 81 % 1007,4 hPa 0,0 l/m 11,0 km/h SW 14,6 C 16,0 C 6,1 km/h
05.10.2010 12:00 18,8 C 74 % 1007,4 hPa 0,0 l/m 14,9 km/h SW 14,1 C 15,8 C 8,3 km/h
05.10.2010 13:00 17,9 C 76 % 1007,4 hPa 0,0 l/m 24,0 km/h W-SW 13,6 C 12,7 C 13,3 km/h
05.10.2010 14:00 19,3 C 72 % 1007,5 hPa 0,0 l/m 20,1 km/h S-SW 14,1 C 15,3 C 11,2 km/h
05.10.2010 15:00 20,5 C 65 % 1008,0 hPa 0,0 l/m 34,3 km/h SW 13,7 C 15,0 C 19,1 km/h
05.10.2010 16:00 21,4 C 59 % 1008,4 hPa 0,0 l/m 42,1 km/h W-SW 13,0 C 15,7 C 23,4 km/h
05.10.2010 17:00 16,9 C 64 % 1008,9 hPa 0,0 l/m 13,6 km/h W 10,0 C 13,9 C 7,6 km/h
05.10.2010 18:00 16,9 C 64 % 1009,6 hPa 0,0 l/m 0,0 km/h O 10,0 C 16,9 C 0,0 km/h
05.10.2010 19:00 12,9 C 77 % 1010,1 hPa 0,0 l/m 0,0 km/h SO 9,0 C 12,9 C 0,0 km/h
05.10.2010 20:00 11,6 C 83 % 1010,8 hPa 0,0 l/m 0,0 km/h SO 8,8 C 11,6 C 0,0 km/h
05.10.2010 21:00 10,6 C 84 % 1010,8 hPa 0,0 l/m 0,0 km/h SO 8,0 C 10,6 C 0,0 km/h
05.10.2010 22:00 9,9 C 85 % 1011,2 hPa 0,0 l/m 0,0 km/h O-SO 7,5 C 9,9 C 0,0 km/h
05.10.2010 23:00 9,6 C 85 % 1010,8 hPa 0,0 l/m 0,0 km/h SO 7,2 C 9,6 C 0,0 km/h
06.10.2010 00:00 8,9 C 86 % 1010,9 hPa 0,0 l/m 0,0 km/h SO 6,7 C 8,9 C 0,0 km/h
06.10.2010 01:00 8,3 C 86 % 1010,5 hPa 0,0 l/m 0,0 km/h SO 6,1 C 8,3 C 0,0 km/h
06.10.2010 02:00 7,8 C 86 % 1010,9 hPa 0,0 l/m 0,0 km/h O-NO 5,6 C 7,8 C 0,0 km/h
06.10.2010 03:00 7,5 C 85 % 1010,6 hPa 0,0 l/m 0,0 km/h O-SO 5,1 C 7,5 C 0,0 km/h
06.10.2010 04:00 7,1 C 85 % 1010,0 hPa 0,0 l/m 0,0 km/h NO 4,8 C 7,1 C 0,0 km/h
06.10.2010 05:00 6,8 C 85 % 1010,3 hPa 0,0 l/m 0,0 km/h O-SO 4,5 C 6,8 C 0,0 km/h
06.10.2010 06:00 6,0 C 86 % 1010,2 hPa 0,0 l/m 0,0 km/h NO 3,8 C 6,0 C 0,0 km/h
06.10.2010 07:00 5,9 C 85 % 1010,5 hPa 0,0 l/m 0,0 km/h O-NO 3,6 C 5,9 C 0,0 km/h
06.10.2010 08:00 6,4 C 85 % 1010,8 hPa 0,0 l/m 0,0 km/h O-SO 4,1 C 6,4 C 0,0 km/h
06.10.2010 09:00 11,7 C 85 % 1011,3 hPa 0,0 l/m 0,0 km/h O 9,3 C 11,7 C 0,0 km/h
06.10.2010 10:00 18,8 C 68 % 1010,8 hPa 0,0 l/m 0,0 km/h S-SW 12,8 C 18,8 C 0,0 km/h
06.10.2010 11:00 22,3 C 54 % 1011,7 hPa 0,0 l/m 2,6 km/h S 12,5 C 22,3 C 1,4 km/h
06.10.2010 12:00 24,9 C 46 % 1011,3 hPa 0,0 l/m 0,0 km/h W 12,5 C 24,9 C 0,0 km/h
06.10.2010 13:00 23,5 C 51 % 1011,0 hPa 0,0 l/m 0,0 km/h S-SW 12,8 C 23,5 C 0,0 km/h
06.10.2010 14:00 24,9 C 48 % 1010,6 hPa 0,0 l/m 1,9 km/h SW 13,1 C 24,9 C 1,1 km/h
06.10.2010 15:00 27,0 C 47 % 1010,8 hPa 0,0 l/m 4,5 km/h SW 14,7 C 27,0 C 2,5 km/h
06.10.2010 16:00 30,9 C 38 % 1010,9 hPa 0,0 l/m 3,9 km/h SO 14,9 C 30,9 C 2,2 km/h
06.10.2010 17:00 27,9 C 43 % 1011,2 hPa 0,0 l/m 0,0 km/h O-NO 14,1 C 27,9 C 0,0 km/h
06.10.2010 18:00 18,8 C 69 % 1011,9 hPa 0,0 l/m 0,0 km/h SO 13,0 C 18,8 C 0,0 km/h
06.10.2010 19:00 16,3 C 78 % 1012,4 hPa 0,0 l/m 1,9 km/h NO 12,5 C 16,3 C 1,1 km/h
06.10.2010 20:00 15,0 C 83 % 1013,1 hPa 0,0 l/m 1,9 km/h SO 12,1 C 15,0 C 1,1 km/h
06.10.2010 21:00 13,9 C 84 % 1013,7 hPa 0,0 l/m 0,0 km/h NO 11,2 C 13,9 C 0,0 km/h
06.10.2010 22:00 13,0 C 85 % 1014,2 hPa 0,0 l/m 0,0 km/h NO 10,5 C 13,0 C 0,0 km/h
06.10.2010 23:00 12,4 C 86 % 1014,7 hPa 0,0 l/m 0,0 km/h NO 10,1 C 12,4 C 0,0 km/h
07.10.2010 00:00 13,4 C 85 % 1015,0 hPa 0,0 l/m 0,0 km/h NO 10,9 C 13,4 C 0,0 km/h
07.10.2010 01:00 12,6 C 86 % 1015,3 hPa 0,0 l/m 0,0 km/h SO 10,3 C 12,6 C 0,0 km/h
07.10.2010 02:00 11,8 C 86 % 1015,5 hPa 0,0 l/m 0,0 km/h O 9,5 C 11,8 C 0,0 km/h
07.10.2010 03:00 11,3 C 86 % 1015,8 hPa 0,0 l/m 0,0 km/h O 9,0 C 11,3 C 0,0 km/h
07.10.2010 04:00 10,3 C 85 % 1016,2 hPa 0,0 l/m 0,0 km/h NO 7,9 C 10,3 C 0,0 km/h
07.10.2010 05:00 10,5 C 85 % 1016,4 hPa 0,0 l/m 0,0 km/h NO 8,1 C 10,5 C 0,0 km/h
07.10.2010 06:00 10,1 C 85 % 1016,7 hPa 0,0 l/m 0,0 km/h N-NO 7,7 C 10,1 C 0,0 km/h
07.10.2010 07:00 9,9 C 85 % 1017,0 hPa 0,0 l/m 0,0 km/h N-NO 7,5 C 9,9 C 0,0 km/h
07.10.2010 08:00 10,1 C 85 % 1017,5 hPa 0,0 l/m 0,0 km/h N-NO 7,7 C 10,1 C 0,0 km/h
07.10.2010 09:00 14,2 C 84 % 1017,7 hPa 0,0 l/m 0,0 km/h W-SW 11,5 C 14,2 C 0,0 km/h
07.10.2010 10:00 20,3 C 71 % 1017,9 hPa 0,0 l/m 0,0 km/h W 14,9 C 20,3 C 0,0 km/h
07.10.2010 11:00 20,9 C 66 % 1017,9 hPa 0,0 l/m 0,0 km/h N-NW 14,3 C 20,9 C 0,0 km/h
07.10.2010 12:00 21,8 C 65 % 1017,6 hPa 0,0 l/m 0,0 km/h NW 14,9 C 21,8 C 0,0 km/h
07.10.2010 13:00 20,7 C 67 % 1017,0 hPa 0,0 l/m 14,3 km/h W 14,3 C 18,3 C 7,9 km/h
07.10.2010 14:00 20,5 C 68 % 1016,3 hPa 0,0 l/m 1,9 km/h W-NW 14,4 C 20,5 C 1,1 km/h
07.10.2010 15:00 18,6 C 72 % 1016,4 hPa 0,0 l/m 3,9 km/h W-SW 13,4 C 18,6 C 2,2 km/h
07.10.2010 16:00 16,5 C 80 % 1016,4 hPa 0,0 l/m 0,0 km/h W-SW 13,0 C 16,5 C 0,0 km/h
07.10.2010 17:00 15,6 C 84 % 1016,2 hPa 0,0 l/m 0,0 km/h S-SO 12,9 C 15,6 C 0,0 km/h
07.10.2010 18:00 14,9 C 85 % 1016,4 hPa 0,0 l/m 3,9 km/h SO 12,4 C 14,9 C 2,2 km/h
07.10.2010 19:00 14,7 C 86 % 1016,5 hPa 0,0 l/m 0,0 km/h SO 12,4 C 14,7 C 0,0 km/h
07.10.2010 20:00 14,6 C 86 % 1016,8 hPa 0,0 l/m 2,6 km/h SO 12,3 C 14,6 C 1,4 km/h
07.10.2010 21:00 14,3 C 86 % 1017,0 hPa 0,0 l/m 0,0 km/h O-SO 12,0 C 14,3 C 0,0 km/h
07.10.2010 22:00 13,9 C 86 % 1017,1 hPa 0,0 l/m 0,0 km/h SO 11,6 C 13,9 C 0,0 km/h
07.10.2010 23:00 13,6 C 85 % 1017,4 hPa 0,0 l/m 0,0 km/h SO 11,1 C 13,6 C 0,0 km/h
08.10.2010 00:00 12,3 C 86 % 1017,1 hPa 0,0 l/m 0,0 km/h SO 10,0 C 12,3 C 0,0 km/h
08.10.2010 01:00 10,6 C 86 % 1016,9 hPa 0,0 l/m 0,0 km/h NO 8,4 C 10,6 C 0,0 km/h
08.10.2010 02:00 10,1 C 86 % 1017,2 hPa 0,0 l/m 0,0 km/h O-NO 7,9 C 10,1 C 0,0 km/h
08.10.2010 03:00 9,8 C 86 % 1017,0 hPa 0,0 l/m 0,0 km/h NO 7,6 C 9,8 C 0,0 km/h
08.10.2010 04:00 10,1 C 85 % 1016,7 hPa 0,0 l/m 0,0 km/h NO 7,7 C 10,1 C 0,0 km/h
08.10.2010 05:00 10,6 C 85 % 1016,3 hPa 0,0 l/m 0,0 km/h SO 8,2 C 10,6 C 0,0 km/h
08.10.2010 06:00 10,3 C 85 % 1016,3 hPa 0,0 l/m 0,0 km/h NO 7,9 C 10,3 C 0,0 km/h
08.10.2010 07:00 9,6 C 86 % 1016,9 hPa 0,0 l/m 0,0 km/h NO 7,4 C 9,6 C 0,0 km/h
08.10.2010 08:00 10,3 C 85 % 1016,8 hPa 0,0 l/m 0,0 km/h O-SO 7,9 C 10,3 C 0,0 km/h
08.10.2010 09:00 13,2 C 86 % 1016,7 hPa 0,0 l/m 0,0 km/h S-SO 10,9 C 13,2 C 0,0 km/h
08.10.2010 10:00 17,6 C 77 % 1017,1 hPa 0,0 l/m 0,0 km/h W-SW 13,5 C 17,6 C 0,0 km/h
08.10.2010 11:00 21,0 C 66 % 1017,0 hPa 0,0 l/m 1,9 km/h N-NO 14,4 C 21,0 C 1,1 km/h
08.10.2010 12:00 22,6 C 57 % 1016,6 hPa 0,0 l/m 0,0 km/h SW 13,6 C 22,6 C 0,0 km/h
08.10.2010 13:00 22,1 C 61 % 1016,1 hPa 0,0 l/m 0,0 km/h W 14,2 C 22,1 C 0,0 km/h
08.10.2010 14:00 22,7 C 60 % 1015,6 hPa 0,0 l/m 3,2 km/h NW 14,5 C 22,7 C 1,8 km/h
08.10.2010 15:00 24,5 C 57 % 1015,4 hPa 0,0 l/m 2,6 km/h W 15,4 C 24,5 C 1,4 km/h
08.10.2010 16:00 25,5 C 54 % 1014,9 hPa 0,0 l/m 5,2 km/h W-NW 15,5 C 25,5 C 2,9 km/h
08.10.2010 17:00 24,9 C 54 % 1014,8 hPa 0,0 l/m 0,0 km/h W 14,9 C 24,9 C 0,0 km/h
08.10.2010 18:00 18,5 C 70 % 1015,1 hPa 0,0 l/m 0,0 km/h NW 12,9 C 18,5 C 0,0 km/h
08.10.2010 19:00 14,1 C 83 % 1015,6 hPa 0,0 l/m 0,0 km/h N-NO 11,3 C 14,1 C 0,0 km/h
08.10.2010 20:00 12,9 C 86 % 1015,9 hPa 0,0 l/m 0,0 km/h N-NO 10,6 C 12,9 C 0,0 km/h
08.10.2010 21:00 12,0 C 87 % 1016,2 hPa 0,0 l/m 0,0 km/h O-SO 9,9 C 12,0 C 0,0 km/h
08.10.2010 22:00 11,2 C 87 % 1016,3 hPa 0,0 l/m 0,0 km/h O-SO 9,1 C 11,2 C 0,0 km/h
08.10.2010 23:00 10,6 C 87 % 1016,2 hPa 0,0 l/m 0,0 km/h O-NO 8,5 C 10,6 C 0,0 km/h
09.10.2010 00:00 10,3 C 87 % 1016,0 hPa 0,0 l/m 0,0 km/h N-NO 8,2 C 10,3 C 0,0 km/h
09.10.2010 01:00 10,3 C 87 % 1015,9 hPa 0,0 l/m 0,0 km/h N-NO 8,2 C 10,3 C 0,0 km/h
09.10.2010 02:00 9,4 C 87 % 1015,9 hPa 0,0 l/m 0,0 km/h N-NO 7,3 C 9,4 C 0,0 km/h
09.10.2010 03:00 9,4 C 87 % 1015,8 hPa 0,0 l/m 0,0 km/h N-NO 7,3 C 9,4 C 0,0 km/h
09.10.2010 04:00 9,6 C 87 % 1015,8 hPa 0,0 l/m 0,0 km/h N-NO 7,5 C 9,6 C 0,0 km/h
09.10.2010 05:00 9,8 C 86 % 1015,8 hPa 0,0 l/m 0,0 km/h N-NO 7,6 C 9,8 C 0,0 km/h
09.10.2010 06:00 9,6 C 86 % 1015,7 hPa 0,0 l/m 0,0 km/h N-NO 7,4 C 9,6 C 0,0 km/h
09.10.2010 07:00 9,2 C 87 % 1015,8 hPa 0,0 l/m 0,0 km/h N-NO 7,2 C 9,2 C 0,0 km/h
09.10.2010 08:00 10,2 C 86 % 1015,7 hPa 0,0 l/m 0,0 km/h NO 8,0 C 10,2 C 0,0 km/h
09.10.2010 09:00 12,3 C 86 % 1015,8 hPa 0,0 l/m 0,0 km/h SO 10,0 C 12,3 C 0,0 km/h
09.10.2010 10:00 14,4 C 88 % 1015,7 hPa 0,0 l/m 1,3 km/h SO 12,4 C 14,4 C 0,7 km/h
09.10.2010 11:00 15,1 C 86 % 1015,4 hPa 0,0 l/m 5,2 km/h W 12,8 C 15,1 C 2,9 km/h
09.10.2010 12:00 15,2 C 85 % 1014,8 hPa 0,0 l/m 0,0 km/h W-NW 12,7 C 15,2 C 0,0 km/h
09.10.2010 13:00 14,9 C 86 % 1014,3 hPa 0,0 l/m 0,0 km/h NW 12,6 C 14,9 C 0,0 km/h
09.10.2010 14:00 14,9 C 86 % 1013,6 hPa 0,0 l/m 0,0 km/h W 12,6 C 14,9 C 0,0 km/h
09.10.2010 15:00 14,9 C 86 % 1013,1 hPa 0,0 l/m 0,0 km/h W-NW 12,6 C 14,9 C 0,0 km/h
09.10.2010 16:00 15,3 C 85 % 1012,6 hPa 0,0 l/m 0,0 km/h NW 12,8 C 15,3 C 0,0 km/h
09.10.2010 17:00 14,4 C 86 % 1012,4 hPa 0,0 l/m 1,9 km/h W 12,1 C 14,4 C 1,1 km/h
09.10.2010 18:00 13,6 C 87 % 1012,3 hPa 0,0 l/m 0,0 km/h W-NW 11,5 C 13,6 C 0,0 km/h
09.10.2010 19:00 13,3 C 87 % 1012,3 hPa 0,0 l/m 0,0 km/h W 11,2 C 13,3 C 0,0 km/h
09.10.2010 20:00 13,0 C 88 % 1012,4 hPa 0,0 l/m 0,0 km/h W 11,1 C 13,0 C 0,0 km/h
09.10.2010 21:00 12,4 C 87 % 1012,2 hPa 0,0 l/m 0,0 km/h W 10,3 C 12,4 C 0,0 km/h
09.10.2010 22:00 11,0 C 88 % 1012,2 hPa 0,0 l/m 0,0 km/h S 9,1 C 11,0 C 0,0 km/h
09.10.2010 23:00 9,3 C 88 % 1011,9 hPa 0,0 l/m 0,0 km/h S-SO 7,4 C 9,3 C 0,0 km/h
10.10.2010 00:00 10,6 C 87 % 1011,2 hPa 0,0 l/m 0,0 km/h SO 8,5 C 10,6 C 0,0 km/h
10.10.2010 01:00 8,7 C 87 % 1010,9 hPa 0,0 l/m 0,0 km/h O-SO 6,7 C 8,7 C 0,0 km/h
10.10.2010 02:00 7,4 C 88 % 1010,5 hPa 0,0 l/m 0,0 km/h N-NO 5,5 C 7,4 C 0,0 km/h
10.10.2010 03:00 7,3 C 88 % 1009,9 hPa 0,0 l/m 3,9 km/h NO 5,4 C 7,3 C 2,2 km/h
10.10.2010 04:00 6,6 C 88 % 1009,7 hPa 0,0 l/m 0,0 km/h N-NO 4,8 C 6,6 C 0,0 km/h
10.10.2010 05:00 5,8 C 88 % 1009,4 hPa 0,0 l/m 0,0 km/h O-SO 4,0 C 5,8 C 0,0 km/h
10.10.2010 06:00 6,7 C 87 % 1009,1 hPa 0,0 l/m 0,0 km/h N-NO 4,7 C 6,7 C 0,0 km/h
10.10.2010 07:00 6,3 C 87 % 1008,8 hPa 0,0 l/m 0,0 km/h N 4,3 C 6,3 C 0,0 km/h
10.10.2010 08:00 5,9 C 88 % 1008,3 hPa 0,0 l/m 0,0 km/h W 4,1 C 5,9 C 0,0 km/h
10.10.2010 09:00 8,5 C 87 % 1008,6 hPa 0,0 l/m 0,0 km/h W-NW 6,5 C 8,5 C 0,0 km/h
10.10.2010 10:00 14,1 C 80 % 1008,5 hPa 0,0 l/m 0,0 km/h W 10,7 C 14,1 C 0,0 km/h
10.10.2010 11:00 13,8 C 75 % 1008,4 hPa 0,0 l/m 2,6 km/h NW 9,4 C 13,8 C 1,4 km/h
10.10.2010 12:00 14,7 C 77 % 1008,0 hPa 0,0 l/m 0,6 km/h N-NO 10,7 C 14,7 C 0,4 km/h
10.10.2010 13:00 17,1 C 69 % 1007,4 hPa 0,0 l/m 0,6 km/h W 11,4 C 17,1 C 0,4 km/h
10.10.2010 14:00 19,8 C 60 % 1006,9 hPa 0,0 l/m 0,0 km/h S-SO 11,8 C 19,8 C 0,0 km/h
10.10.2010 15:00 22,1 C 53 % 1006,5 hPa 0,0 l/m 0,0 km/h NO 12,1 C 22,1 C 0,0 km/h
10.10.2010 16:00 23,8 C 46 % 1006,1 hPa 0,0 l/m 0,0 km/h N 11,5 C 23,8 C 0,0 km/h
10.10.2010 17:00 22,9 C 43 % 1005,7 hPa 0,0 l/m 0,0 km/h N 9,6 C 22,9 C 0,0 km/h
10.10.2010 18:00 18,3 C 52 % 1006,1 hPa 0,0 l/m 0,0 km/h O-NO 8,3 C 18,3 C 0,0 km/h
10.10.2010 19:00 10,1 C 76 % 1006,1 hPa 0,0 l/m 0,0 km/h O 6,1 C 10,1 C 0,0 km/h
10.10.2010 20:00 8,2 C 82 % 1006,3 hPa 0,0 l/m 0,0 km/h N-NO 5,3 C 8,2 C 0,0 km/h
10.10.2010 21:00 10,6 C 69 % 1006,1 hPa 0,0 l/m 0,0 km/h NO 5,2 C 10,6 C 0,0 km/h
10.10.2010 22:00 9,5 C 70 % 1005,9 hPa 0,0 l/m 5,8 km/h N-NW 4,3 C 9,5 C 3,2 km/h
10.10.2010 23:00 10,6 C 65 % 1005,6 hPa 0,0 l/m 0,0 km/h SW 4,3 C 10,6 C 0,0 km/h
Min-Datum _ 10.10.10 06.10.10 04.10.10 - 04.10.10 - 06.10.10 10.10.10 04.10.10
_ Min-Zeit 05:30 16:30 16:30 - 00:30 - 07:30 05:30 00:30
Minimum _ 5,8 C 38 % 997,5 hPa - 0,0 km/h - 3,6 C 5,8 C 0,0 km/h
Max-Datum _ 06.10.10 09.10.10 07.10.10 05.10.10 05.10.10 - 08.10.10 06.10.10 05.10.10
_ Max-Zeit 16:30 10:30 10:30 02:30 16:30 - 16:30 16:30 16:30
Maximum _ 30,9 C 88 % 1017,9 hPa 0,4 l/m 42,1 km/h
W-SW
- 15,5 C 30,9 C 23,4 km/h
W-SW
Durchschnitt _ 14,2 C 77 % 1010,7 hPa #0,7 l/m 1,7 km/h NO 10,1 C 14,0 C 0,9 km/h